createdAt,value
2022-08-16T00:01:24.447Z,100370.44
2022-08-16T00:03:53.750Z,100367.03
2022-08-16T00:06:21.765Z,100366.28
2022-08-16T00:08:49.997Z,100374.31
2022-08-16T00:11:20.971Z,100373.81
2022-08-16T00:13:53.451Z,100379.03
2022-08-16T00:17:05.923Z,100383.56
2022-08-16T00:19:15.760Z,100384.78
2022-08-16T00:21:44.524Z,100392.06
2022-08-16T00:24:13.449Z,100393.00
2022-08-16T00:26:58.422Z,100396.75
2022-08-16T00:29:25.570Z,100394.34
2022-08-16T00:32:00.090Z,100393.63
2022-08-16T00:34:41.906Z,100397.22
2022-08-16T00:37:17.230Z,100405.28
2022-08-16T00:39:56.992Z,100396.38
2022-08-16T00:42:30.053Z,100402.72
2022-08-16T00:45:09.768Z,100408.97
2022-08-16T00:47:49.222Z,100401.09
2022-08-16T00:50:36.255Z,100405.63
2022-08-16T00:53:07.353Z,100415.47
2022-08-16T00:55:38.291Z,100428.69
2022-08-16T00:58:13.087Z,100432.34
2022-08-16T01:00:45.593Z,100435.69
2022-08-16T01:03:30.369Z,100438.44
2022-08-16T01:05:59.376Z,100444.63
2022-08-16T01:08:36.278Z,100444.53
2022-08-16T01:11:05.512Z,100449.94
2022-08-16T01:13:37.219Z,100453.34
2022-08-16T01:16:12.930Z,100456.94
2022-08-16T01:18:59.204Z,100451.81
2022-08-16T01:21:52.583Z,100449.38
2022-08-16T01:24:51.552Z,100453.75
2022-08-16T01:27:30.966Z,100454.78
2022-08-16T01:30:18.073Z,100450.34
2022-08-16T01:33:01.570Z,100450.41
2022-08-16T01:35:46.360Z,100450.56
2022-08-16T01:38:35.558Z,100443.47
2022-08-16T01:41:09.503Z,100446.19
2022-08-16T01:43:40.264Z,100441.81
2022-08-16T01:46:29.801Z,100445.50
2022-08-16T01:49:36.004Z,100451.03
2022-08-16T01:52:28.017Z,100449.09
2022-08-16T01:55:05.363Z,100451.91
2022-08-16T01:57:35.600Z,100452.75
2022-08-16T02:00:19.565Z,100447.59
2022-08-16T02:02:46.884Z,100449.47
2022-08-16T02:05:21.160Z,100453.88
2022-08-16T02:07:52.022Z,100446.81
2022-08-16T02:10:20.862Z,100447.78
2022-08-16T02:12:55.741Z,100448.72
2022-08-16T02:15:28.218Z,100456.69
2022-08-16T02:18:01.414Z,100458.47
2022-08-16T02:20:35.143Z,100455.06
2022-08-16T02:23:05.922Z,100468.47
2022-08-16T02:25:52.267Z,100463.25
2022-08-16T02:28:23.558Z,100459.97
2022-08-16T02:30:53.288Z,100453.09
2022-08-16T02:33:24.359Z,100453.88
2022-08-16T02:36:15.209Z,100459.25
2022-08-16T02:39:04.463Z,100453.09
2022-08-16T02:41:31.470Z,100446.91
2022-08-16T02:44:01.141Z,100447.00
2022-08-16T02:46:30.006Z,100439.03
2022-08-16T02:49:03.316Z,100447.09
2022-08-16T02:51:33.820Z,100441.00
2022-08-16T02:54:03.148Z,100448.06
2022-08-16T02:56:32.086Z,100440.09
2022-08-16T02:58:59.426Z,100443.78
2022-08-16T03:01:36.630Z,100447.34
2022-08-16T03:04:28.910Z,100446.50
2022-08-16T03:06:57.936Z,100443.06
2022-08-16T03:09:41.357Z,100442.34
2022-08-16T03:12:11.752Z,100440.56
2022-08-16T03:14:43.748Z,100452.19
2022-08-16T03:17:11.203Z,100454.91
2022-08-16T03:19:47.903Z,100449.69
2022-08-16T03:22:28.403Z,100448.91
2022-08-16T03:25:01.226Z,100441.97
2022-08-16T03:27:32.791Z,100442.88
2022-08-16T03:30:17.412Z,100439.38
2022-08-16T03:32:55.799Z,100442.13
2022-08-16T03:35:32.620Z,100437.72
2022-08-16T03:38:33.714Z,100435.16
2022-08-16T03:40:56.127Z,100432.59
2022-08-16T03:43:51.543Z,100434.38
2022-08-16T03:46:44.481Z,100433.66
2022-08-16T03:49:03.030Z,100441.78
2022-08-16T03:51:30.465Z,100428.72
2022-08-16T03:54:03.455Z,100435.63
2022-08-16T03:56:56.724Z,100432.16
2022-08-16T03:59:29.747Z,100434.03
2022-08-16T04:02:02.020Z,100442.94
2022-08-16T04:04:33.430Z,100437.56
2022-08-16T04:07:05.812Z,100442.09
2022-08-16T04:09:38.101Z,100445.53
2022-08-16T04:12:10.652Z,100445.44
2022-08-16T04:14:46.773Z,100441.94
2022-08-16T04:17:17.132Z,100446.22
2022-08-16T04:19:45.435Z,100448.88
2022-08-16T04:22:17.271Z,100454.13
2022-08-16T04:24:55.327Z,100450.75
2022-08-16T04:27:29.012Z,100446.16
2022-08-16T04:30:03.052Z,100457.53
2022-08-16T04:32:35.527Z,100445.28
2022-08-16T04:35:12.368Z,100458.47
2022-08-16T04:37:44.954Z,100449.72
2022-08-16T04:40:20.531Z,100450.38
2022-08-16T04:42:50.402Z,100455.59
2022-08-16T04:45:18.643Z,100461.63
2022-08-16T04:48:05.897Z,100464.25
2022-08-16T04:50:43.562Z,100460.53
2022-08-16T04:53:15.885Z,100463.81
2022-08-16T04:55:45.251Z,100470.38
2022-08-16T04:58:44.763Z,100477.03
2022-08-16T05:01:01.901Z,100476.81
2022-08-16T05:03:31.052Z,100481.22
2022-08-16T05:05:59.724Z,100480.88
2022-08-16T05:08:32.804Z,100480.03
2022-08-16T05:11:16.928Z,100489.63
2022-08-16T05:13:47.513Z,100482.53
2022-08-16T05:16:30.115Z,100489.56
2022-08-16T05:19:11.599Z,100486.81
2022-08-16T05:21:47.623Z,100486.66
2022-08-16T05:24:14.565Z,100487.44
2022-08-16T05:26:51.911Z,100491.75
2022-08-16T05:29:20.622Z,100492.47
2022-08-16T05:32:01.467Z,100489.81
2022-08-16T05:34:29.228Z,100492.28
2022-08-16T05:36:57.463Z,100482.69
2022-08-16T05:39:33.362Z,100482.34
2022-08-16T05:42:04.848Z,100495.41
2022-08-16T05:44:32.556Z,100492.59
2022-08-16T05:47:02.051Z,100492.59
2022-08-16T05:49:39.890Z,100499.47
2022-08-16T05:52:13.684Z,100503.81
2022-08-16T05:54:47.569Z,100506.13
2022-08-16T05:57:20.657Z,100514.84
2022-08-16T05:59:50.736Z,100509.38
2022-08-16T06:02:33.491Z,100509.16
2022-08-16T06:05:02.246Z,100507.38
2022-08-16T06:07:31.919Z,100504.31
2022-08-16T06:10:09.684Z,100509.47
2022-08-16T06:12:37.464Z,100509.28
2022-08-16T06:15:11.982Z,100509.22
2022-08-16T06:17:44.327Z,100509.22
2022-08-16T06:20:35.466Z,100513.59
2022-08-16T06:23:20.029Z,100519.00
2022-08-16T06:25:59.408Z,100511.72
2022-08-16T06:28:36.443Z,100515.16
2022-08-16T06:31:12.079Z,100510.44
2022-08-16T06:33:42.331Z,100516.38
2022-08-16T06:36:14.762Z,100505.56
2022-08-16T06:38:55.450Z,100520.41
2022-08-16T06:41:29.339Z,100530.88
2022-08-16T06:44:21.093Z,100523.59
2022-08-16T06:46:53.778Z,100525.81
2022-08-16T06:49:21.180Z,100524.66
2022-08-16T06:51:48.996Z,100525.16
2022-08-16T06:54:21.740Z,100528.44
2022-08-16T06:56:52.368Z,100523.66
2022-08-16T06:59:25.539Z,100528.72
2022-08-16T07:01:58.299Z,100525.81
2022-08-16T07:04:31.882Z,100531.81
2022-08-16T07:07:01.913Z,100527.88
2022-08-16T07:09:30.605Z,100532.75
2022-08-16T07:12:05.393Z,100547.44
2022-08-16T07:14:35.373Z,100542.72
2022-08-16T07:17:08.200Z,100546.75
2022-08-16T07:20:29.320Z,100554.47
2022-08-16T07:22:52.962Z,100553.34
2022-08-16T07:25:24.969Z,100553.88
2022-08-16T07:27:52.859Z,100565.91
2022-08-16T07:30:46.003Z,100562.09
2022-08-16T07:33:52.005Z,100568.78
2022-08-16T07:36:07.622Z,100564.03
2022-08-16T07:38:41.364Z,100560.25
2022-08-16T07:41:09.632Z,100567.97
2022-08-16T07:43:40.545Z,100573.03
2022-08-16T07:46:39.276Z,100575.41
2022-08-16T07:49:02.360Z,100575.25
2022-08-16T07:51:37.022Z,100571.34
2022-08-16T07:54:11.447Z,100572.78
2022-08-16T07:56:48.368Z,100558.38
2022-08-16T07:59:16.167Z,100569.34
2022-08-16T08:01:43.643Z,100571.72
2022-08-16T08:04:13.149Z,100567.06
2022-08-16T08:06:42.456Z,100566.66
2022-08-16T08:09:16.238Z,100564.78
2022-08-16T08:12:01.068Z,100567.66
2022-08-16T08:14:29.403Z,100563.66
2022-08-16T08:16:59.025Z,100573.06
2022-08-16T08:19:30.148Z,100569.25
2022-08-16T08:22:00.705Z,100570.78
2022-08-16T08:24:53.366Z,100575.88
2022-08-16T08:27:26.588Z,100580.06
2022-08-16T08:30:50.537Z,100572.78
2022-08-16T08:32:51.167Z,100573.06
2022-08-16T08:35:28.728Z,100580.59
2022-08-16T08:37:58.453Z,100584.72
2022-08-16T08:40:29.593Z,100590.63
2022-08-16T08:43:00.442Z,100600.59
2022-08-16T08:45:48.381Z,100586.75
2022-08-16T08:48:35.091Z,100597.81
2022-08-16T08:51:11.140Z,100588.34
2022-08-16T08:53:58.021Z,100591.47
2022-08-16T08:56:32.459Z,100587.44
2022-08-16T08:59:26.007Z,100586.06
2022-08-16T09:01:57.032Z,100590.34
2022-08-16T09:04:28.558Z,100596.91
2022-08-16T09:06:58.384Z,100604.28
2022-08-16T09:09:33.411Z,100599.44
2022-08-16T09:12:06.189Z,100606.84
2022-08-16T09:14:49.347Z,100610.69
2022-08-16T09:17:38.221Z,100605.69
2022-08-16T09:20:07.957Z,100608.69
2022-08-16T09:22:34.976Z,100610.94
2022-08-16T09:25:09.919Z,100613.09
2022-08-16T09:27:57.369Z,100617.81
2022-08-16T09:30:33.655Z,100619.84
2022-08-16T09:33:06.814Z,100620.06
2022-08-16T09:35:38.674Z,100615.91
2022-08-16T09:38:08.637Z,100621.31
2022-08-16T09:40:43.354Z,100623.59
2022-08-16T09:43:37.768Z,100622.19
2022-08-16T09:46:04.015Z,100622.56
2022-08-16T09:48:52.888Z,100620.34
2022-08-16T09:51:26.284Z,100624.41
2022-08-16T09:53:57.899Z,100614.44
2022-08-16T09:56:35.338Z,100618.47
2022-08-16T09:59:07.951Z,100616.09
2022-08-16T10:01:43.488Z,100622.94
2022-08-16T10:04:30.257Z,100619.94
2022-08-16T10:09:45.274Z,100620.13
2022-08-16T10:12:42.435Z,100621.38
2022-08-16T10:15:16.622Z,100628.00
2022-08-16T10:18:00.232Z,100615.97
2022-08-16T10:20:32.491Z,100617.34
2022-08-16T10:23:06.936Z,100617.00
2022-08-16T10:27:21.946Z,100619.31
2022-08-16T10:28:39.098Z,100620.19
2022-08-16T10:31:14.498Z,100623.03
2022-08-16T10:33:44.227Z,100628.66
2022-08-16T10:36:39.333Z,100620.19
2022-08-16T10:39:00.897Z,100624.34
2022-08-16T10:41:28.945Z,100614.13
2022-08-16T10:43:56.720Z,100626.81
2022-08-16T10:46:33.640Z,100618.28
2022-08-16T10:49:01.470Z,100624.00
2022-08-16T10:51:34.483Z,100623.53
2022-08-16T10:54:28.648Z,100621.47
2022-08-16T10:56:57.108Z,100631.00
2022-08-16T10:59:32.905Z,100622.69
2022-08-16T11:02:57.559Z,100628.56
2022-08-16T11:05:08.761Z,100633.69
2022-08-16T11:07:51.951Z,100639.44
2022-08-16T11:16:26.786Z,100634.56
2022-08-16T11:19:05.307Z,100639.69
2022-08-16T11:22:23.274Z,100638.94
2022-08-16T11:24:39.499Z,100633.47
2022-08-16T11:27:32.774Z,100636.13
2022-08-16T11:29:57.037Z,100640.03
2022-08-16T11:32:31.494Z,100637.00
2022-08-16T11:35:13.529Z,100641.75
2022-08-16T11:40:46.911Z,100651.97
2022-08-16T11:43:23.743Z,100646.69
2022-08-16T11:45:54.684Z,100646.06
2022-08-16T11:48:25.602Z,100651.91
2022-08-16T11:50:53.145Z,100643.50
2022-08-16T11:53:21.902Z,100639.53
2022-08-16T11:55:54.772Z,100647.34
2022-08-16T11:58:24.681Z,100645.38
2022-08-16T12:00:55.628Z,100645.00
2022-08-16T12:03:31.428Z,100649.88
2022-08-16T12:06:30.334Z,100652.31
2022-08-16T12:09:02.189Z,100660.00
2022-08-16T12:11:31.580Z,100657.16
2022-08-16T12:14:01.985Z,100660.47
2022-08-16T12:16:34.483Z,100657.78
2022-08-16T12:19:10.745Z,100654.81
2022-08-16T12:21:58.837Z,100652.84
2022-08-16T12:24:27.142Z,100642.53
2022-08-16T12:26:54.549Z,100647.38
2022-08-16T12:29:22.378Z,100641.63
2022-08-16T12:32:01.586Z,100642.94
2022-08-16T12:34:47.977Z,100648.78
2022-08-16T12:37:18.156Z,100649.50
2022-08-16T12:39:50.614Z,100642.16
2022-08-16T12:42:19.390Z,100642.59
2022-08-16T12:44:49.056Z,100641.38
2022-08-16T12:47:37.257Z,100640.09
2022-08-16T12:50:10.529Z,100635.44
2022-08-16T12:52:53.001Z,100647.66
2022-08-16T12:55:22.117Z,100646.53
2022-08-16T12:57:58.406Z,100642.00
2022-08-16T13:00:33.037Z,100642.44
2022-08-16T13:03:03.375Z,100641.19
2022-08-16T13:08:03.792Z,100649.31
2022-08-16T13:10:36.829Z,100643.06
2022-08-16T13:13:07.044Z,100644.34
2022-08-16T13:15:51.617Z,100650.13
2022-08-16T13:18:34.057Z,100643.28
2022-08-16T13:21:05.023Z,100643.28
2022-08-16T13:23:33.214Z,100648.66
2022-08-16T13:26:00.527Z,100650.50
2022-08-16T13:28:27.644Z,100645.97
2022-08-16T13:30:56.804Z,100650.41
2022-08-16T13:33:36.816Z,100638.75
2022-08-16T13:36:17.101Z,100650.59
2022-08-16T13:38:55.640Z,100647.34
2022-08-16T13:41:24.203Z,100647.09
2022-08-16T13:43:57.859Z,100643.41
2022-08-16T13:46:27.290Z,100650.47
2022-08-16T13:48:56.031Z,100643.97
2022-08-16T13:51:25.223Z,100635.47
2022-08-16T13:54:02.800Z,100636.75
2022-08-16T13:56:37.875Z,100635.63
2022-08-16T13:59:20.543Z,100631.69
2022-08-16T14:01:55.890Z,100621.34
2022-08-16T14:04:39.249Z,100630.00
2022-08-16T14:07:11.335Z,100630.56
2022-08-16T14:09:39.431Z,100631.28
2022-08-16T14:12:29.387Z,100621.47
2022-08-16T14:14:57.573Z,100622.38
2022-08-16T14:17:26.570Z,100613.41
2022-08-16T14:19:54.585Z,100613.84
2022-08-16T14:22:42.353Z,100611.16
2022-08-16T14:25:18.994Z,100616.16
2022-08-16T14:27:46.628Z,100620.28
2022-08-16T14:30:17.701Z,100617.44
2022-08-16T14:32:46.756Z,100619.88
2022-08-16T14:35:36.340Z,100611.47
2022-08-16T14:38:04.802Z,100619.28
2022-08-16T14:40:32.896Z,100614.47
2022-08-16T14:43:07.324Z,100615.03
2022-08-16T14:45:34.585Z,100619.41
2022-08-16T14:48:01.502Z,100619.16
2022-08-16T14:50:28.692Z,100615.31
2022-08-16T14:53:01.182Z,100610.78
2022-08-16T14:55:33.485Z,100610.91
2022-08-16T14:58:05.815Z,100614.03
2022-08-16T15:00:37.427Z,100615.03
2022-08-16T15:03:09.664Z,100604.38
2022-08-16T15:05:39.750Z,100611.75
2022-08-16T15:08:06.934Z,100609.22
2022-08-16T15:10:34.984Z,100614.63
2022-08-16T15:13:09.561Z,100607.38
2022-08-16T15:15:38.758Z,100624.28
2022-08-16T15:18:11.747Z,100613.47
2022-08-16T15:20:41.087Z,100614.31
2022-08-16T15:23:09.968Z,100614.44
2022-08-16T15:25:44.560Z,100610.06
2022-08-16T15:28:30.958Z,100614.75
2022-08-16T15:31:03.954Z,100615.88
2022-08-16T15:33:42.709Z,100618.03
2022-08-16T15:36:17.946Z,100620.00
2022-08-16T15:39:02.916Z,100621.72
2022-08-16T15:41:42.609Z,100619.88
2022-08-16T15:44:22.393Z,100624.53
2022-08-16T15:46:55.836Z,100625.53
2022-08-16T15:49:34.687Z,100628.38
2022-08-16T15:52:14.337Z,100620.56
2022-08-16T15:54:53.527Z,100614.44
2022-08-16T15:57:24.609Z,100620.81
2022-08-16T15:59:56.152Z,100618.13
2022-08-16T16:02:38.790Z,100617.56
2022-08-16T16:05:11.188Z,100625.38
2022-08-16T16:07:56.430Z,100618.00
2022-08-16T16:10:29.833Z,100632.59
2022-08-16T16:13:00.503Z,100636.88
2022-08-16T16:15:31.646Z,100635.03
2022-08-16T16:17:59.006Z,100635.88
2022-08-16T16:20:35.548Z,100634.19
2022-08-16T16:23:10.352Z,100638.00
2022-08-16T16:25:44.022Z,100645.09
2022-08-16T16:28:45.924Z,100639.00
2022-08-16T16:31:12.484Z,100635.59
2022-08-16T16:33:44.384Z,100643.69
2022-08-16T16:36:17.212Z,100645.53
2022-08-16T16:38:48.817Z,100637.44
2022-08-16T16:41:23.336Z,100642.84
2022-08-16T16:43:53.453Z,100646.94
2022-08-16T16:46:42.396Z,100644.84
2022-08-16T16:49:14.113Z,100651.50
2022-08-16T16:51:44.666Z,100659.63
2022-08-16T16:54:13.308Z,100657.91
2022-08-16T16:56:49.759Z,100666.03
2022-08-16T16:59:19.927Z,100671.72
2022-08-16T17:02:00.495Z,100670.75
2022-08-16T17:04:36.809Z,100676.00
2022-08-16T17:07:03.886Z,100673.03
2022-08-16T17:09:40.250Z,100684.50
2022-08-16T17:12:09.062Z,100684.22
2022-08-16T17:14:38.460Z,100698.44
2022-08-16T17:17:11.562Z,100699.13
2022-08-16T17:19:42.578Z,100687.13
2022-08-16T17:22:16.086Z,100693.53
2022-08-16T17:24:52.667Z,100702.22
2022-08-16T17:27:33.821Z,100699.25
2022-08-16T17:30:14.822Z,100702.22
2022-08-16T17:32:50.096Z,100698.84
2022-08-16T17:35:23.040Z,100705.41
2022-08-16T17:37:51.720Z,100709.13
2022-08-16T17:40:47.511Z,100712.38
2022-08-16T17:43:17.190Z,100716.22
2022-08-16T17:45:44.217Z,100712.94
2022-08-16T17:48:11.772Z,100725.44
2022-08-16T17:50:40.274Z,100722.13
2022-08-16T17:53:07.771Z,100725.94
2022-08-16T17:55:38.612Z,100739.69
2022-08-16T17:58:10.539Z,100737.91
2022-08-16T18:00:52.228Z,100741.69
2022-08-16T18:04:02.810Z,100739.34
2022-08-16T18:06:25.464Z,100743.91
2022-08-16T18:09:01.765Z,100747.44
2022-08-16T18:11:30.137Z,100739.97
2022-08-16T18:14:00.484Z,100743.56
2022-08-16T18:16:27.658Z,100742.38
2022-08-16T18:18:54.560Z,100745.69
2022-08-16T18:21:40.523Z,100760.63
2022-08-16T18:24:08.744Z,100756.16
2022-08-16T18:26:36.111Z,100761.91
2022-08-16T18:29:03.276Z,100763.41
2022-08-16T18:31:30.335Z,100769.41
2022-08-16T18:33:57.225Z,100772.69
2022-08-16T18:36:25.536Z,100782.25
2022-08-16T18:38:54.015Z,100788.25
2022-08-16T18:41:24.922Z,100795.94
2022-08-16T18:44:22.289Z,100788.63
2022-08-16T18:46:43.712Z,100787.66
2022-08-16T18:49:13.247Z,100790.81
2022-08-16T18:51:45.225Z,100799.59
2022-08-16T18:54:17.843Z,100802.16
2022-08-16T18:56:56.372Z,100803.59
2022-08-16T18:59:27.758Z,100807.84
2022-08-16T19:02:00.215Z,100805.66
2022-08-16T19:04:50.348Z,100808.78
2022-08-16T19:07:23.190Z,100808.53
2022-08-16T19:10:01.777Z,100811.53
2022-08-16T19:12:47.154Z,100818.97
2022-08-16T19:15:22.827Z,100829.31
2022-08-16T19:17:49.943Z,100827.88
2022-08-16T19:20:20.606Z,100832.81
2022-08-16T19:23:05.453Z,100834.03
2022-08-16T19:25:48.697Z,100834.59
2022-08-16T19:28:50.994Z,100839.44
2022-08-16T19:31:31.096Z,100837.97
2022-08-16T19:33:58.325Z,100842.69
2022-08-16T19:36:37.902Z,100841.44
2022-08-16T19:39:13.685Z,100837.25
2022-08-16T19:41:53.341Z,100835.91
2022-08-16T19:44:22.320Z,100850.00
2022-08-16T19:46:49.570Z,100845.06
2022-08-16T19:49:17.064Z,100848.19
2022-08-16T19:51:48.285Z,100841.22
2022-08-16T19:54:15.696Z,100848.28
2022-08-16T19:56:42.619Z,100836.94
2022-08-16T19:59:19.357Z,100840.34
2022-08-16T20:01:50.030Z,100844.75
2022-08-16T20:04:17.046Z,100846.16
2022-08-16T20:06:43.961Z,100835.66
2022-08-16T20:09:12.624Z,100846.03
2022-08-16T20:11:46.704Z,100843.88
2022-08-16T20:14:23.960Z,100848.84
2022-08-16T20:16:55.154Z,100847.53
2022-08-16T20:19:22.068Z,100840.53
2022-08-16T20:21:49.743Z,100844.06
2022-08-16T20:24:33.638Z,100840.75
2022-08-16T20:27:02.815Z,100839.31
2022-08-16T20:29:29.723Z,100845.00
2022-08-16T20:31:56.830Z,100847.25
2022-08-16T20:34:23.786Z,100847.00
2022-08-16T20:36:50.731Z,100853.06
2022-08-16T20:39:17.690Z,100852.03
2022-08-16T20:41:45.163Z,100855.06
2022-08-16T20:44:12.699Z,100858.00
2022-08-16T20:46:39.986Z,100853.63
2022-08-16T20:49:09.068Z,100856.66
2022-08-16T20:51:46.509Z,100850.59
2022-08-16T20:54:14.806Z,100858.47
2022-08-16T20:56:41.838Z,100862.31
2022-08-16T20:59:08.737Z,100853.63
2022-08-16T21:01:49.658Z,100865.06
2022-08-16T21:04:25.225Z,100870.44
2022-08-16T21:06:53.713Z,100866.78
2022-08-16T21:09:28.745Z,100860.69
2022-08-16T21:11:57.357Z,100859.81
2022-08-16T21:14:24.509Z,100862.69
2022-08-16T21:16:51.544Z,100872.59
2022-08-16T21:19:19.100Z,100869.09
2022-08-16T21:21:46.468Z,100868.31
2022-08-16T21:24:14.057Z,100864.91
2022-08-16T21:26:40.992Z,100861.63
2022-08-16T21:29:17.935Z,100856.59
2022-08-16T21:31:44.901Z,100858.56
2022-08-16T21:34:11.837Z,100858.84
2022-08-16T21:36:38.793Z,100859.84
2022-08-16T21:39:06.399Z,100866.25
2022-08-16T21:41:35.226Z,100864.63
2022-08-16T21:44:02.142Z,100858.81
2022-08-16T21:46:29.124Z,100868.72
2022-08-16T21:48:56.043Z,100861.81
2022-08-16T21:51:22.947Z,100858.38
2022-08-16T21:53:49.922Z,100866.50
2022-08-16T21:56:17.590Z,100866.78
2022-08-16T21:58:53.297Z,100865.16
2022-08-16T22:01:23.104Z,100873.25
2022-08-16T22:04:35.753Z,100868.09
2022-08-16T22:06:39.253Z,100866.53
2022-08-16T22:09:08.224Z,100866.72
2022-08-16T22:11:35.521Z,100867.78
2022-08-16T22:14:04.251Z,100872.34
2022-08-16T22:16:35.163Z,100867.19
2022-08-16T22:19:04.449Z,100879.75
2022-08-16T22:21:32.439Z,100884.34
2022-08-16T22:23:59.564Z,100872.13
2022-08-16T22:26:32.218Z,100870.63
2022-08-16T22:29:02.184Z,100871.75
2022-08-16T22:31:29.316Z,100887.75
2022-08-16T22:33:56.890Z,100888.03
2022-08-16T22:36:28.462Z,100893.47
2022-08-16T22:39:03.439Z,100896.38
2022-08-16T22:41:32.645Z,100901.91
2022-08-16T22:44:02.043Z,100895.88
2022-08-16T22:46:30.209Z,100895.19
2022-08-16T22:48:57.530Z,100896.31
2022-08-16T22:51:27.285Z,100905.41
2022-08-16T22:53:55.509Z,100908.25
2022-08-16T22:56:23.892Z,100907.75
2022-08-16T22:58:50.925Z,100906.97
2022-08-16T23:01:22.803Z,100904.44
2022-08-16T23:03:50.398Z,100905.50
2022-08-16T23:06:17.824Z,100900.34
2022-08-16T23:08:44.947Z,100908.50
2022-08-16T23:11:22.507Z,100899.72
2022-08-16T23:13:56.181Z,100894.53
2022-08-16T23:16:33.239Z,100897.38
2022-08-16T23:19:12.363Z,100894.00
2022-08-16T23:21:43.759Z,100893.25
2022-08-16T23:24:11.885Z,100895.13
2022-08-16T23:26:47.934Z,100898.81
2022-08-16T23:29:23.996Z,100896.31
2022-08-16T23:32:08.369Z,100896.47
2022-08-16T23:34:35.308Z,100897.59
2022-08-16T23:37:02.227Z,100895.97
2022-08-16T23:39:29.444Z,100892.59
2022-08-16T23:41:56.422Z,100879.44
2022-08-16T23:44:42.223Z,100886.63
2022-08-16T23:47:10.827Z,100883.38
2022-08-16T23:49:58.038Z,100880.88
2022-08-16T23:52:53.944Z,100886.38
2022-08-16T23:55:11.737Z,100880.41
2022-08-16T23:57:38.666Z,100875.16
